createdAt,value
2019-03-10T00:02:04.193Z,0.40
2019-03-10T00:04:32.447Z,0.47
2019-03-10T00:07:00.531Z,0.20
2019-03-10T00:09:28.577Z,0.53
2019-03-10T00:11:56.545Z,0.40
2019-03-10T00:14:24.570Z,0.47
2019-03-10T00:16:52.586Z,0.30
2019-03-10T00:19:20.673Z,0.40
2019-03-10T00:21:48.659Z,0.40
2019-03-10T00:24:16.763Z,0.40
2019-03-10T00:26:45.148Z,0.20
2019-03-10T00:29:13.077Z,0.43
2019-03-10T00:31:41.152Z,0.67
2019-03-10T00:34:09.307Z,0.40
2019-03-10T00:36:37.295Z,0.77
2019-03-10T00:39:09.568Z,0.57
2019-03-10T00:41:54.812Z,0.40
2019-03-10T00:44:40.797Z,0.30
2019-03-10T00:47:26.613Z,0.40
2019-03-10T00:50:12.505Z,0.50
2019-03-10T00:52:42.708Z,0.50
2019-03-10T00:55:10.809Z,0.47
2019-03-10T00:57:39.011Z,0.53
2019-03-10T01:00:09.139Z,0.40
2019-03-10T01:02:37.059Z,0.50
2019-03-10T01:05:05.028Z,0.50
2019-03-10T01:07:33.306Z,0.30
2019-03-10T01:10:01.406Z,0.50
2019-03-10T01:12:29.617Z,0.37
2019-03-10T01:14:57.620Z,0.40
2019-03-10T01:17:27.344Z,0.77
2019-03-10T01:19:55.477Z,0.67
2019-03-10T01:22:23.540Z,0.50
2019-03-10T01:24:51.629Z,0.50
2019-03-10T01:27:19.650Z,0.50
2019-03-10T01:29:47.791Z,0.77
2019-03-10T01:32:33.624Z,0.50
2019-03-10T01:35:06.593Z,0.63
2019-03-10T01:37:34.564Z,0.70
2019-03-10T01:40:04.141Z,0.60
2019-03-10T01:42:32.514Z,0.60
2019-03-10T01:45:00.542Z,0.70
2019-03-10T01:47:28.621Z,0.67
2019-03-10T01:49:56.594Z,0.60
2019-03-10T01:52:24.664Z,0.70
2019-03-10T01:54:52.777Z,0.70
2019-03-10T01:57:20.893Z,0.50
2019-03-10T01:59:51.643Z,0.60
2019-03-10T02:02:25.667Z,0.90
2019-03-10T02:04:49.523Z,0.90
2019-03-10T02:07:18.979Z,0.57
2019-03-10T02:09:47.056Z,0.70
2019-03-10T02:12:15.138Z,0.80
2019-03-10T02:14:43.367Z,0.63
2019-03-10T02:17:11.363Z,0.90
2019-03-10T02:19:39.388Z,0.70
2019-03-10T02:22:07.461Z,0.70
2019-03-10T02:24:35.529Z,0.80
2019-03-10T02:27:03.550Z,0.70
2019-03-10T02:29:31.636Z,0.53
2019-03-10T02:31:59.699Z,0.80
2019-03-10T02:34:27.792Z,0.50
2019-03-10T02:36:55.973Z,0.70
2019-03-10T02:39:24.302Z,0.80
2019-03-10T02:41:52.375Z,0.70
2019-03-10T02:44:20.667Z,0.70
2019-03-10T02:46:48.651Z,0.70
2019-03-10T02:49:16.719Z,0.60
2019-03-10T02:51:44.781Z,0.77
2019-03-10T02:54:12.905Z,1.07
2019-03-10T02:56:40.896Z,0.63
2019-03-10T02:59:08.937Z,0.97
2019-03-10T03:01:37.176Z,0.80
2019-03-10T03:04:05.181Z,1.07
2019-03-10T03:06:35.114Z,0.70
2019-03-10T03:09:03.166Z,0.70
2019-03-10T03:11:31.210Z,0.90
2019-03-10T03:13:59.292Z,0.80
2019-03-10T03:16:27.331Z,0.70
2019-03-10T03:18:55.294Z,0.83
2019-03-10T03:21:23.312Z,0.77
2019-03-10T03:23:51.327Z,0.77
2019-03-10T03:26:19.851Z,1.00
2019-03-10T03:28:47.959Z,0.73
2019-03-10T03:31:16.036Z,0.80
2019-03-10T03:33:44.121Z,1.13
2019-03-10T03:36:14.080Z,0.90
2019-03-10T03:38:46.962Z,0.80
2019-03-10T03:41:15.813Z,0.80
2019-03-10T03:43:43.871Z,0.90
2019-03-10T03:46:11.946Z,0.80
2019-03-10T03:48:40.154Z,1.13
2019-03-10T03:51:08.280Z,0.90
2019-03-10T03:53:36.338Z,1.13
2019-03-10T03:56:04.821Z,0.93
2019-03-10T03:58:32.864Z,1.00
2019-03-10T04:01:34.849Z,0.93
2019-03-10T04:04:03.135Z,1.07
2019-03-10T04:06:31.189Z,0.90
2019-03-10T04:08:59.207Z,1.00
2019-03-10T04:11:27.220Z,0.90
2019-03-10T04:13:55.280Z,0.90
2019-03-10T04:16:23.577Z,0.90
2019-03-10T04:18:51.556Z,1.07
2019-03-10T04:21:19.713Z,1.13
2019-03-10T04:23:47.747Z,1.10
2019-03-10T04:26:15.813Z,1.33
2019-03-10T04:28:43.911Z,1.20
2019-03-10T04:31:12.033Z,1.10
2019-03-10T04:33:40.109Z,1.33
2019-03-10T04:36:08.207Z,1.10
2019-03-10T04:38:36.549Z,1.00
2019-03-10T04:41:04.620Z,1.20
2019-03-10T04:43:32.946Z,1.30
2019-03-10T04:46:00.980Z,1.10
2019-03-10T04:48:29.088Z,1.30
2019-03-10T04:50:57.120Z,1.10
2019-03-10T04:53:25.373Z,0.90
2019-03-10T04:56:15.386Z,1.10
2019-03-10T04:58:49.572Z,1.00
2019-03-10T05:01:18.890Z,1.10
2019-03-10T05:03:47.189Z,1.07
2019-03-10T05:06:15.366Z,1.03
2019-03-10T05:08:43.577Z,1.03
2019-03-10T05:11:11.605Z,1.20
2019-03-10T05:13:39.547Z,1.43
2019-03-10T05:16:07.648Z,1.20
2019-03-10T05:18:35.619Z,1.07
2019-03-10T05:21:03.591Z,1.30
2019-03-10T05:23:36.100Z,1.37
2019-03-10T05:26:04.239Z,1.00
2019-03-10T05:28:32.559Z,1.10
2019-03-10T05:31:00.668Z,1.20
2019-03-10T05:33:28.867Z,1.20
2019-03-10T05:35:56.905Z,0.97
2019-03-10T05:38:24.896Z,1.10
2019-03-10T05:40:52.932Z,1.00
2019-03-10T05:43:20.944Z,1.17
2019-03-10T05:45:50.821Z,0.93
2019-03-10T05:48:18.821Z,1.03
2019-03-10T05:50:46.936Z,0.97
2019-03-10T05:53:15.999Z,1.00
2019-03-10T05:55:44.102Z,1.03
2019-03-10T05:58:12.209Z,0.87
2019-03-10T06:00:43.030Z,1.07
2019-03-10T06:03:10.372Z,0.90
2019-03-10T06:05:38.531Z,0.80
2019-03-10T06:08:09.572Z,0.83
2019-03-10T06:10:37.878Z,1.07
2019-03-10T06:13:05.986Z,1.00
2019-03-10T06:15:34.463Z,0.90
2019-03-10T06:18:12.768Z,0.90
2019-03-10T06:20:32.335Z,0.90
2019-03-10T06:23:00.407Z,1.20
2019-03-10T06:25:28.391Z,1.07
2019-03-10T06:27:56.434Z,0.80
2019-03-10T06:30:24.425Z,0.70
2019-03-10T06:32:52.390Z,0.90
2019-03-10T06:35:20.479Z,1.00
2019-03-10T06:37:48.532Z,0.90
2019-03-10T06:40:16.625Z,0.70
2019-03-10T06:42:44.691Z,0.80
2019-03-10T06:45:12.799Z,0.90
2019-03-10T06:47:40.923Z,0.90
2019-03-10T06:50:09.200Z,0.70
2019-03-10T06:52:37.244Z,0.70
2019-03-10T06:55:05.315Z,0.70
2019-03-10T06:57:33.336Z,0.83
2019-03-10T07:00:01.530Z,0.80
2019-03-10T07:02:29.612Z,0.53
2019-03-10T07:04:57.696Z,0.77
2019-03-10T07:07:25.823Z,0.50
2019-03-10T07:09:53.850Z,0.50
2019-03-10T07:12:21.909Z,0.70
2019-03-10T07:14:49.946Z,0.60
2019-03-10T07:17:18.017Z,0.47
2019-03-10T07:19:46.125Z,0.60
2019-03-10T07:22:14.184Z,0.73
2019-03-10T07:24:43.764Z,0.60
2019-03-10T07:27:11.768Z,0.70
2019-03-10T07:29:47.382Z,0.60
2019-03-10T07:32:31.438Z,0.50
2019-03-10T07:35:24.992Z,0.70
2019-03-10T07:38:27.031Z,0.63
2019-03-10T07:41:14.109Z,0.47
2019-03-10T07:44:03.315Z,0.60
2019-03-10T07:46:42.797Z,0.60
2019-03-10T07:49:29.812Z,0.60
2019-03-10T07:52:20.250Z,0.70
2019-03-10T07:55:01.747Z,0.50
2019-03-10T07:57:43.406Z,0.60
2019-03-10T08:00:29.774Z,0.60
2019-03-10T08:03:19.613Z,0.47
2019-03-10T08:05:57.803Z,0.63
2019-03-10T08:08:44.845Z,0.60
2019-03-10T08:11:31.966Z,1.07
2019-03-10T08:14:30.912Z,0.70
2019-03-10T08:17:07.956Z,0.50
2019-03-10T08:19:53.552Z,0.80
2019-03-10T08:22:55.673Z,0.53
2019-03-10T08:25:42.780Z,0.53
2019-03-10T08:28:28.560Z,0.57
2019-03-10T08:31:15.515Z,0.53
2019-03-10T08:33:50.608Z,0.57
2019-03-10T08:36:46.450Z,0.60
2019-03-10T08:39:28.012Z,0.50
2019-03-10T08:42:30.017Z,0.60
2019-03-10T08:45:19.955Z,0.60
2019-03-10T08:48:01.275Z,0.63
2019-03-10T08:50:42.563Z,0.60
2019-03-10T08:53:24.432Z,0.50
2019-03-10T08:56:14.091Z,0.67
2019-03-10T08:59:06.876Z,0.63
2019-03-10T09:01:56.619Z,0.80
2019-03-10T09:04:41.980Z,0.90
2019-03-10T09:07:27.488Z,0.50
2019-03-10T09:10:14.534Z,0.67
2019-03-10T09:12:51.999Z,0.60
2019-03-10T09:15:35.552Z,0.80
2019-03-10T09:18:25.312Z,0.70
2019-03-10T09:21:06.265Z,0.50
2019-03-10T09:24:08.211Z,0.90
2019-03-10T09:27:04.000Z,0.70
2019-03-10T09:29:52.663Z,0.40
2019-03-10T09:32:38.262Z,0.60
2019-03-10T09:35:10.954Z,0.60
2019-03-10T09:37:46.779Z,0.53
2019-03-10T09:40:30.992Z,0.57
2019-03-10T09:43:20.879Z,0.70
2019-03-10T09:46:07.914Z,0.70
2019-03-10T09:48:41.579Z,0.70
2019-03-10T09:51:37.355Z,0.60
2019-03-10T09:54:20.800Z,0.60
2019-03-10T09:57:07.984Z,0.70
2019-03-10T09:59:57.943Z,0.60
2019-03-10T10:02:36.111Z,0.50
2019-03-10T10:05:19.211Z,0.60
2019-03-10T10:07:58.026Z,0.60
2019-03-10T10:10:53.885Z,0.53
2019-03-10T10:13:31.064Z,0.50
2019-03-10T10:16:15.215Z,0.70
2019-03-10T10:19:00.777Z,0.70
2019-03-10T10:21:48.776Z,0.70
2019-03-10T10:24:35.710Z,0.67
2019-03-10T10:27:34.761Z,0.73
2019-03-10T10:30:20.263Z,0.60
2019-03-10T10:33:13.113Z,0.70
2019-03-10T10:35:58.642Z,0.67
2019-03-10T10:38:51.619Z,0.80
2019-03-10T10:41:35.597Z,0.60
2019-03-10T10:44:26.431Z,0.77
2019-03-10T10:47:22.203Z,0.80
2019-03-10T10:50:07.309Z,0.80
2019-03-10T10:53:03.224Z,0.70
2019-03-10T10:55:53.474Z,0.60
2019-03-10T10:58:58.511Z,0.70
2019-03-10T11:01:34.636Z,0.70
2019-03-10T11:04:30.508Z,0.80
2019-03-10T11:07:29.879Z,0.63
2019-03-10T11:10:15.435Z,0.80
2019-03-10T11:13:01.048Z,0.60
2019-03-10T11:15:46.103Z,0.80
2019-03-10T11:18:26.048Z,0.90
2019-03-10T11:21:19.071Z,0.80
2019-03-10T11:24:08.152Z,0.90
2019-03-10T11:26:53.578Z,0.70
2019-03-10T11:29:55.584Z,0.87
2019-03-10T11:32:48.753Z,0.90
2019-03-10T11:35:40.320Z,0.97
2019-03-10T11:38:37.110Z,0.80
2019-03-10T11:41:33.294Z,1.00
2019-03-10T11:44:03.444Z,0.87
2019-03-10T11:46:56.138Z,1.13
2019-03-10T11:49:52.820Z,0.87
2019-03-10T11:52:32.116Z,0.90
2019-03-10T11:55:17.527Z,0.93
2019-03-10T11:58:02.252Z,0.80
2019-03-10T12:00:35.443Z,0.87
2019-03-10T12:03:23.248Z,0.90
2019-03-10T12:06:15.250Z,1.00
2019-03-10T12:08:59.353Z,1.00
2019-03-10T12:11:27.372Z,0.90
2019-03-10T12:13:55.488Z,0.93
2019-03-10T12:16:23.549Z,0.90
2019-03-10T12:18:52.227Z,0.90
2019-03-10T12:21:20.187Z,1.03
2019-03-10T12:23:48.243Z,1.00
2019-03-10T12:26:16.538Z,0.90
2019-03-10T12:28:44.781Z,1.10
2019-03-10T12:31:12.850Z,1.10
2019-03-10T12:33:40.965Z,1.10
2019-03-10T12:36:08.998Z,1.00
2019-03-10T12:38:37.115Z,1.03
2019-03-10T12:41:05.296Z,1.20
2019-03-10T12:43:34.311Z,1.00
2019-03-10T12:46:02.414Z,1.00
2019-03-10T12:48:30.448Z,1.20
2019-03-10T12:50:58.911Z,1.10
2019-03-10T12:53:27.079Z,1.00
2019-03-10T12:55:55.110Z,1.00
2019-03-10T12:58:23.157Z,1.10
2019-03-10T13:00:51.423Z,0.80
2019-03-10T13:03:19.499Z,0.90
2019-03-10T13:05:47.579Z,0.90
2019-03-10T13:08:15.967Z,0.87
2019-03-10T13:10:43.973Z,0.73
2019-03-10T13:13:12.100Z,0.90
2019-03-10T13:15:40.191Z,0.90
2019-03-10T13:18:08.253Z,0.90
2019-03-10T13:20:36.428Z,1.00
2019-03-10T13:23:04.809Z,0.80
2019-03-10T13:25:33.142Z,0.90
2019-03-10T13:28:01.193Z,0.93
2019-03-10T13:30:29.318Z,0.80
2019-03-10T13:32:57.532Z,0.90
2019-03-10T13:35:25.703Z,0.90
2019-03-10T13:37:53.704Z,0.90
2019-03-10T13:40:21.684Z,0.90
2019-03-10T13:42:49.836Z,1.20
2019-03-10T13:45:17.830Z,0.90
2019-03-10T13:47:45.815Z,1.03
2019-03-10T13:50:14.549Z,0.80
2019-03-10T13:52:42.605Z,1.03
2019-03-10T13:55:10.691Z,0.93
2019-03-10T13:57:38.817Z,0.90
2019-03-10T14:00:08.264Z,1.00
2019-03-10T14:02:36.247Z,0.90
2019-03-10T14:05:04.680Z,0.80
2019-03-10T14:07:32.844Z,0.90
2019-03-10T14:10:01.366Z,0.90
2019-03-10T14:12:29.495Z,0.70
2019-03-10T14:14:57.580Z,1.00
2019-03-10T14:17:25.624Z,0.70
2019-03-10T14:19:53.739Z,0.70
2019-03-10T14:22:21.847Z,0.73
2019-03-10T14:24:49.921Z,0.87
2019-03-10T14:27:17.871Z,1.10
2019-03-10T14:29:45.911Z,0.87
2019-03-10T14:32:16.795Z,0.90
2019-03-10T14:34:44.921Z,1.10
2019-03-10T14:37:13.177Z,0.80
2019-03-10T14:39:41.278Z,0.80
2019-03-10T14:42:09.304Z,0.70
2019-03-10T14:44:37.316Z,0.70
2019-03-10T14:47:05.391Z,0.87
2019-03-10T14:49:33.549Z,0.80
2019-03-10T14:52:01.558Z,0.97
2019-03-10T14:54:29.705Z,1.00
2019-03-10T14:56:59.445Z,0.80
2019-03-10T14:59:27.504Z,0.90
2019-03-10T15:01:55.580Z,0.80
2019-03-10T15:04:23.548Z,1.00
2019-03-10T15:06:51.616Z,0.63
2019-03-10T15:09:19.701Z,0.90
2019-03-10T15:11:47.743Z,1.00
2019-03-10T15:14:15.681Z,0.70
2019-03-10T15:16:43.770Z,0.90
2019-03-10T15:19:12.269Z,1.10
2019-03-10T15:21:40.362Z,1.00
2019-03-10T15:24:08.387Z,1.00
2019-03-10T15:26:45.267Z,0.90
2019-03-10T15:29:06.327Z,0.93
2019-03-10T15:31:34.542Z,1.00
2019-03-10T15:34:02.782Z,0.97
2019-03-10T15:36:30.868Z,1.00
2019-03-10T15:39:01.691Z,1.00
2019-03-10T15:41:29.692Z,1.20
2019-03-10T15:43:57.775Z,1.00
2019-03-10T15:46:25.815Z,1.07
2019-03-10T15:48:53.974Z,1.20
2019-03-10T15:51:22.028Z,1.00
2019-03-10T15:53:50.007Z,1.10
2019-03-10T15:56:18.235Z,1.10
2019-03-10T15:58:46.276Z,1.20
2019-03-10T16:01:14.251Z,1.00
2019-03-10T16:03:42.384Z,0.80
2019-03-10T16:06:10.668Z,1.13
2019-03-10T16:08:38.681Z,1.00
2019-03-10T16:11:06.947Z,1.00
2019-03-10T16:13:34.983Z,0.83
2019-03-10T16:16:03.113Z,0.90
2019-03-10T16:18:31.346Z,0.97
2019-03-10T16:20:59.610Z,1.40
2019-03-10T16:23:27.680Z,0.93
2019-03-10T16:25:55.829Z,1.00
2019-03-10T16:28:23.919Z,0.90
2019-03-10T16:30:51.957Z,1.20
2019-03-10T16:33:20.067Z,1.00
2019-03-10T16:35:48.166Z,1.30
2019-03-10T16:38:16.319Z,1.07
2019-03-10T16:40:44.313Z,1.30
2019-03-10T16:43:12.401Z,1.40
2019-03-10T16:45:40.827Z,1.30
2019-03-10T16:48:08.876Z,1.37
2019-03-10T16:50:36.919Z,1.10
2019-03-10T16:53:04.989Z,1.17
2019-03-10T16:55:33.327Z,1.00
2019-03-10T16:58:01.491Z,1.20
2019-03-10T17:00:29.441Z,1.20
2019-03-10T17:02:57.946Z,1.20
2019-03-10T17:05:26.012Z,1.17
2019-03-10T17:07:54.067Z,1.60
2019-03-10T17:10:22.144Z,2.40
2019-03-10T17:12:50.224Z,2.00
2019-03-10T17:15:18.246Z,2.03
2019-03-10T17:17:46.257Z,1.70
2019-03-10T17:20:14.854Z,1.57
2019-03-10T17:22:42.883Z,2.50
2019-03-10T17:25:10.987Z,1.70
2019-03-10T17:27:39.096Z,1.40
2019-03-10T17:30:08.757Z,1.90
2019-03-10T17:32:37.381Z,1.77
2019-03-10T17:35:05.633Z,2.20
2019-03-10T17:37:33.851Z,2.10
2019-03-10T17:40:01.884Z,2.07
2019-03-10T17:42:29.982Z,1.90
2019-03-10T17:45:00.583Z,1.90
2019-03-10T17:47:28.601Z,1.80
2019-03-10T17:49:57.273Z,1.33
2019-03-10T17:52:25.594Z,1.60
2019-03-10T17:54:53.660Z,1.67
2019-03-10T17:57:21.693Z,2.20
2019-03-10T17:59:52.998Z,2.17
2019-03-10T18:02:21.103Z,1.90
2019-03-10T18:04:49.139Z,2.23
2019-03-10T18:07:17.378Z,1.93
2019-03-10T18:09:45.664Z,1.80
2019-03-10T18:12:13.640Z,1.73
2019-03-10T18:14:41.663Z,1.43
2019-03-10T18:17:09.631Z,1.50
2019-03-10T18:19:37.736Z,1.60
2019-03-10T18:22:05.830Z,1.77
2019-03-10T18:24:33.889Z,1.33
2019-03-10T18:27:02.044Z,1.53
2019-03-10T18:29:30.035Z,1.20
2019-03-10T18:31:58.296Z,1.30
2019-03-10T18:34:26.395Z,1.50
2019-03-10T18:36:54.555Z,1.30
2019-03-10T18:39:22.652Z,1.33
2019-03-10T18:41:50.686Z,2.00
2019-03-10T18:44:18.751Z,1.60
2019-03-10T18:46:46.695Z,1.63
2019-03-10T18:49:14.639Z,1.50
2019-03-10T18:51:42.697Z,1.40
2019-03-10T18:54:10.733Z,1.30
2019-03-10T18:56:38.773Z,1.63
2019-03-10T18:59:07.037Z,2.30
2019-03-10T19:01:35.295Z,1.53
2019-03-10T19:04:03.403Z,1.50
2019-03-10T19:06:31.544Z,1.43
2019-03-10T19:08:59.818Z,1.43
2019-03-10T19:11:27.856Z,1.50
2019-03-10T19:13:55.890Z,1.60
2019-03-10T19:16:24.227Z,1.57
2019-03-10T19:18:52.336Z,1.50
2019-03-10T19:21:20.398Z,1.40
2019-03-10T19:23:48.447Z,1.50
2019-03-10T19:26:16.524Z,1.53
2019-03-10T19:28:45.086Z,1.50
2019-03-10T19:31:13.266Z,1.60
2019-03-10T19:33:41.464Z,1.63
2019-03-10T19:36:09.488Z,1.40
2019-03-10T19:38:37.600Z,1.60
2019-03-10T19:41:05.858Z,1.40
2019-03-10T19:43:33.975Z,1.40
2019-03-10T19:46:02.067Z,1.33
2019-03-10T19:48:30.116Z,1.40
2019-03-10T19:50:58.667Z,1.60
2019-03-10T19:53:26.706Z,1.70
2019-03-10T19:55:54.726Z,1.53
2019-03-10T19:58:23.044Z,1.80
2019-03-10T20:00:51.128Z,1.83
2019-03-10T20:03:19.160Z,1.53
2019-03-10T20:05:47.242Z,1.90
2019-03-10T20:08:15.305Z,1.60
2019-03-10T20:10:43.370Z,1.37
2019-03-10T20:13:11.813Z,1.53
2019-03-10T20:15:39.968Z,1.37
2019-03-10T20:18:08.107Z,1.60
2019-03-10T20:20:36.198Z,1.50
2019-03-10T20:23:04.257Z,1.60
2019-03-10T20:25:32.280Z,1.40
2019-03-10T20:28:00.306Z,1.53
2019-03-10T20:30:28.563Z,1.50
2019-03-10T20:32:56.634Z,1.40
2019-03-10T20:35:24.786Z,1.63
2019-03-10T20:37:53.003Z,1.40
2019-03-10T20:40:21.083Z,1.60
2019-03-10T20:42:49.134Z,1.50
2019-03-10T20:45:17.327Z,1.80
2019-03-10T20:47:45.596Z,1.50
2019-03-10T20:50:14.076Z,1.90
2019-03-10T20:52:42.087Z,1.70
2019-03-10T20:55:10.436Z,1.47
2019-03-10T20:57:38.479Z,1.60
2019-03-10T21:00:07.685Z,1.30
2019-03-10T21:02:35.744Z,1.80
2019-03-10T21:05:04.275Z,1.40
2019-03-10T21:07:32.362Z,1.50
2019-03-10T21:10:00.439Z,1.33
2019-03-10T21:12:39.497Z,1.53
2019-03-10T21:14:58.224Z,1.40
2019-03-10T21:17:26.375Z,1.50
2019-03-10T21:19:54.400Z,1.60
2019-03-10T21:22:22.339Z,1.70
2019-03-10T21:24:50.631Z,1.70
2019-03-10T21:27:18.724Z,1.70
2019-03-10T21:29:46.679Z,1.50
2019-03-10T21:32:14.735Z,1.50
2019-03-10T21:34:42.802Z,1.37
2019-03-10T21:37:10.956Z,1.60
2019-03-10T21:39:39.069Z,1.60
2019-03-10T21:42:07.142Z,1.50
2019-03-10T21:44:35.174Z,1.60
2019-03-10T21:47:03.234Z,1.37
2019-03-10T21:49:31.282Z,1.70
2019-03-10T21:51:59.592Z,1.50
2019-03-10T21:54:28.019Z,1.27
2019-03-10T21:56:55.971Z,1.30
2019-03-10T21:59:24.010Z,1.20
2019-03-10T22:01:52.065Z,1.30
2019-03-10T22:04:20.056Z,1.40
2019-03-10T22:06:48.295Z,1.50
2019-03-10T22:09:16.376Z,1.40
2019-03-10T22:11:44.371Z,1.40
2019-03-10T22:14:12.387Z,1.27
2019-03-10T22:16:40.516Z,1.20
2019-03-10T22:19:10.012Z,1.20
2019-03-10T22:21:38.300Z,1.23
2019-03-10T22:24:06.480Z,1.40
2019-03-10T22:26:34.573Z,1.47
2019-03-10T22:29:02.618Z,1.40
2019-03-10T22:31:30.650Z,1.33
2019-03-10T22:33:58.658Z,1.20
2019-03-10T22:36:29.228Z,1.00
2019-03-10T22:38:57.277Z,1.13
2019-03-10T22:41:25.360Z,1.30
2019-03-10T22:43:53.727Z,1.20
2019-03-10T22:46:21.790Z,1.50
2019-03-10T22:48:49.811Z,1.30
2019-03-10T22:51:17.876Z,1.20
2019-03-10T22:53:45.880Z,1.30
2019-03-10T22:56:13.924Z,1.00
2019-03-10T22:58:42.008Z,1.40
2019-03-10T23:01:17.603Z,1.43
2019-03-10T23:03:45.639Z,1.40
2019-03-10T23:06:13.676Z,1.20
2019-03-10T23:08:41.764Z,1.20
2019-03-10T23:11:09.869Z,1.40
2019-03-10T23:13:37.927Z,1.30
2019-03-10T23:16:06.014Z,1.30
2019-03-10T23:18:34.101Z,1.40
2019-03-10T23:21:02.108Z,1.30
2019-03-10T23:23:30.141Z,1.40
2019-03-10T23:25:58.181Z,1.30
2019-03-10T23:28:26.446Z,1.53
2019-03-10T23:30:54.767Z,1.30
2019-03-10T23:33:22.874Z,1.23
2019-03-10T23:35:50.976Z,1.30
2019-03-10T23:38:18.919Z,1.30
2019-03-10T23:40:46.910Z,1.27
2019-03-10T23:43:15.075Z,1.30
2019-03-10T23:45:43.285Z,1.30
2019-03-10T23:48:11.301Z,1.40
2019-03-10T23:50:39.408Z,1.20
2019-03-10T23:53:09.667Z,1.43
2019-03-10T23:55:37.805Z,1.47
2019-03-10T23:58:05.839Z,1.47
